createdAt,value
2018-11-25T00:01:26.859Z,100323.27
2018-11-25T00:04:14.525Z,100321.11
2018-11-25T00:07:01.852Z,100324.17
2018-11-25T00:09:49.671Z,100322.27
2018-11-25T00:12:37.037Z,100322.62
2018-11-25T00:15:24.557Z,100324.18
2018-11-25T00:18:11.984Z,100329.65
2018-11-25T00:21:00.755Z,100323.74
2018-11-25T00:23:48.073Z,100316.10
2018-11-25T00:26:35.299Z,100312.39
2018-11-25T00:29:22.352Z,100318.27
2018-11-25T00:32:09.738Z,100311.57
2018-11-25T00:34:56.791Z,100312.70
2018-11-25T00:37:48.695Z,100312.96
2018-11-25T00:40:31.700Z,100321.05
2018-11-25T00:43:18.857Z,100320.41
2018-11-25T00:46:06.318Z,100310.99
2018-11-25T00:48:53.842Z,100301.98
2018-11-25T00:51:41.019Z,100296.92
2018-11-25T00:54:28.748Z,100308.43
2018-11-25T00:57:17.398Z,100306.42
2018-11-25T01:00:04.826Z,100302.09
2018-11-25T01:02:52.546Z,100306.09
2018-11-25T01:05:40.222Z,100302.23
2018-11-25T01:08:27.672Z,100305.48
2018-11-25T01:11:15.498Z,100306.08
2018-11-25T01:14:02.976Z,100304.06
2018-11-25T01:16:50.196Z,100311.66
2018-11-25T01:19:37.570Z,100310.06
2018-11-25T01:22:24.984Z,100314.56
2018-11-25T01:25:12.818Z,100312.56
2018-11-25T01:28:00.785Z,100311.83
2018-11-25T01:30:48.765Z,100308.88
2018-11-25T01:33:36.302Z,100305.37
2018-11-25T01:36:23.428Z,100303.55
2018-11-25T01:39:10.629Z,100291.70
2018-11-25T01:41:57.943Z,100293.03
2018-11-25T01:44:45.795Z,100295.72
2018-11-25T01:47:33.259Z,100292.28
2018-11-25T01:50:20.355Z,100291.77
2018-11-25T01:53:07.837Z,100286.90
2018-11-25T01:55:55.118Z,100277.63
2018-11-25T01:58:42.501Z,100266.19
2018-11-25T02:01:29.965Z,100273.12
2018-11-25T02:04:19.743Z,100264.48
2018-11-25T02:07:04.870Z,100263.78
2018-11-25T02:09:52.064Z,100273.45
2018-11-25T02:12:40.915Z,100283.20
2018-11-25T02:15:28.346Z,100280.09
2018-11-25T02:18:15.664Z,100278.69
2018-11-25T02:21:02.674Z,100275.08
2018-11-25T02:23:49.831Z,100266.38
2018-11-25T02:26:37.006Z,100268.41
2018-11-25T02:29:24.250Z,100256.05
2018-11-25T02:32:11.359Z,100256.93
2018-11-25T02:34:59.809Z,100249.12
2018-11-25T02:37:46.817Z,100245.38
2018-11-25T02:40:34.284Z,100243.25
2018-11-25T02:43:21.661Z,100251.05
2018-11-25T02:46:09.328Z,100245.67
2018-11-25T02:48:56.651Z,100256.45
2018-11-25T02:51:43.824Z,100244.97
2018-11-25T02:54:31.436Z,100245.26
2018-11-25T02:57:18.613Z,100244.70
2018-11-25T03:00:05.892Z,100244.47
2018-11-25T03:02:53.500Z,100245.70
2018-11-25T03:05:40.736Z,100242.59
2018-11-25T03:08:27.945Z,100238.88
2018-11-25T03:11:22.747Z,100244.45
2018-11-25T03:14:09.746Z,100248.23
2018-11-25T03:16:57.156Z,100236.91
2018-11-25T03:19:44.437Z,100237.77
2018-11-25T03:22:31.962Z,100242.55
2018-11-25T03:25:19.081Z,100235.11
2018-11-25T03:28:06.342Z,100231.95
2018-11-25T03:30:53.551Z,100237.07
2018-11-25T03:33:40.897Z,100232.63
2018-11-25T03:36:28.562Z,100222.08
2018-11-25T03:39:16.002Z,100229.00
2018-11-25T03:42:03.572Z,100226.28
2018-11-25T03:44:50.936Z,100218.78
2018-11-25T03:47:45.687Z,100220.03
2018-11-25T03:50:32.882Z,100215.19
2018-11-25T03:53:20.167Z,100213.87
2018-11-25T03:56:10.348Z,100210.37
2018-11-25T03:58:57.777Z,100208.62
2018-11-25T04:01:45.050Z,100210.80
2018-11-25T04:04:32.418Z,100215.09
2018-11-25T04:10:25.635Z,100223.09
2018-11-25T04:13:13.142Z,100224.03
2018-11-25T04:16:00.457Z,100226.11
2018-11-25T04:18:47.939Z,100233.02
2018-11-25T04:21:35.578Z,100222.59
2018-11-25T04:24:22.987Z,100223.31
2018-11-25T04:27:11.027Z,100221.20
2018-11-25T04:30:13.670Z,100229.94
2018-11-25T04:33:00.651Z,100229.08
2018-11-25T04:35:48.138Z,100229.52
2018-11-25T04:38:35.659Z,100234.77
2018-11-25T04:41:22.980Z,100237.42
2018-11-25T04:44:10.200Z,100237.02
2018-11-25T04:46:57.214Z,100238.80
2018-11-25T04:49:44.643Z,100233.97
2018-11-25T04:52:31.834Z,100241.36
2018-11-25T04:55:19.213Z,100237.88
2018-11-25T04:58:06.448Z,100237.55
2018-11-25T05:00:53.707Z,100239.48
2018-11-25T05:03:41.061Z,100233.91
2018-11-25T05:06:28.545Z,100222.86
2018-11-25T05:09:15.926Z,100225.66
2018-11-25T05:12:03.329Z,100226.20
2018-11-25T05:14:50.752Z,100225.61
2018-11-25T05:17:37.877Z,100218.36
2018-11-25T05:20:27.623Z,100217.70
2018-11-25T05:23:15.394Z,100219.05
2018-11-25T05:26:10.433Z,100219.98
2018-11-25T05:28:57.291Z,100216.72
2018-11-25T05:31:59.872Z,100214.39
2018-11-25T05:34:47.545Z,100208.78
2018-11-25T05:37:35.108Z,100207.72
2018-11-25T05:40:22.184Z,100203.31
2018-11-25T05:43:17.237Z,100213.23
2018-11-25T05:46:04.590Z,100205.19
2018-11-25T05:48:51.836Z,100203.00
2018-11-25T05:51:39.097Z,100204.02
2018-11-25T05:54:26.295Z,100202.47
2018-11-25T05:57:14.560Z,100210.77
2018-11-25T06:00:02.229Z,100203.95
2018-11-25T06:02:49.495Z,100201.09
2018-11-25T06:05:37.140Z,100201.80
2018-11-25T06:08:24.532Z,100202.46
2018-11-25T06:11:11.713Z,100197.04
2018-11-25T06:13:59.341Z,100195.00
2018-11-25T06:16:46.763Z,100197.36
2018-11-25T06:19:33.883Z,100193.58
2018-11-25T06:22:21.305Z,100197.18
2018-11-25T06:25:11.948Z,100197.37
2018-11-25T06:27:59.589Z,100207.75
2018-11-25T06:30:47.879Z,100209.27
2018-11-25T06:33:35.242Z,100216.72
2018-11-25T06:36:22.485Z,100217.13
2018-11-25T06:39:09.640Z,100218.52
2018-11-25T06:41:57.155Z,100212.53
2018-11-25T06:44:44.578Z,100220.83
2018-11-25T06:47:31.802Z,100223.66
2018-11-25T06:50:19.162Z,100225.62
2018-11-25T06:53:06.632Z,100229.73
2018-11-25T06:55:54.212Z,100231.66
2018-11-25T06:58:41.558Z,100228.63
2018-11-25T07:01:28.977Z,100231.41
2018-11-25T07:04:16.442Z,100230.73
2018-11-25T07:07:03.804Z,100236.45
2018-11-25T07:09:51.255Z,100234.00
2018-11-25T07:12:46.245Z,100228.04
2018-11-25T07:15:33.404Z,100235.22
2018-11-25T07:18:20.728Z,100230.13
2018-11-25T07:21:08.155Z,100234.33
2018-11-25T07:23:55.610Z,100235.89
2018-11-25T07:26:42.998Z,100233.92
2018-11-25T07:29:32.717Z,100233.80
2018-11-25T07:32:19.787Z,100233.25
2018-11-25T07:35:07.064Z,100239.28
2018-11-25T07:37:55.594Z,100239.22
2018-11-25T07:40:42.732Z,100236.95
2018-11-25T07:43:30.091Z,100240.37
2018-11-25T07:46:17.958Z,100241.89
2018-11-25T07:49:04.979Z,100238.67
2018-11-25T07:51:52.462Z,100242.36
2018-11-25T07:54:39.723Z,100240.84
2018-11-25T07:57:27.906Z,100245.88
2018-11-25T08:00:15.851Z,100237.76
2018-11-25T08:03:03.257Z,100235.26
2018-11-25T08:05:51.671Z,100229.20
2018-11-25T08:08:39.350Z,100229.19
2018-11-25T08:11:26.823Z,100236.56
2018-11-25T08:14:15.117Z,100236.21
2018-11-25T08:17:03.298Z,100235.36
2018-11-25T08:19:50.912Z,100237.86
2018-11-25T08:22:38.201Z,100229.89
2018-11-25T08:25:25.744Z,100231.58
2018-11-25T08:28:14.350Z,100233.63
2018-11-25T08:31:01.486Z,100234.48
2018-11-25T08:33:48.929Z,100235.92
2018-11-25T08:36:36.930Z,100235.70
2018-11-25T08:39:23.929Z,100232.19
2018-11-25T08:42:11.838Z,100226.97
2018-11-25T08:45:11.668Z,100234.41
2018-11-25T08:47:59.274Z,100236.91
2018-11-25T08:50:46.721Z,100232.30
2018-11-25T08:53:34.077Z,100229.42
2018-11-25T08:56:21.641Z,100236.70
2018-11-25T08:59:09.119Z,100230.67
2018-11-25T09:01:56.487Z,100225.92
2018-11-25T09:04:44.337Z,100234.83
2018-11-25T09:07:31.937Z,100232.81
2018-11-25T09:10:19.745Z,100234.91
2018-11-25T09:13:07.196Z,100235.70
2018-11-25T09:15:54.726Z,100237.06
2018-11-25T09:18:42.552Z,100241.53
2018-11-25T09:21:30.358Z,100249.50
2018-11-25T09:24:17.937Z,100247.37
2018-11-25T09:27:05.486Z,100248.56
2018-11-25T09:30:00.954Z,100244.77
2018-11-25T09:32:51.610Z,100243.11
2018-11-25T09:35:38.742Z,100241.36
2018-11-25T09:38:26.836Z,100241.14
2018-11-25T09:41:14.493Z,100239.09
2018-11-25T09:44:05.699Z,100242.83
2018-11-25T09:46:53.639Z,100240.16
2018-11-25T09:49:40.818Z,100240.47
2018-11-25T09:52:28.524Z,100234.53
2018-11-25T09:55:15.685Z,100238.25
2018-11-25T09:58:03.069Z,100239.82
2018-11-25T10:00:54.231Z,100238.31
2018-11-25T10:03:41.936Z,100238.04
2018-11-25T10:06:29.783Z,100230.78
2018-11-25T10:09:17.272Z,100229.31
2018-11-25T10:12:05.821Z,100231.26
2018-11-25T10:14:53.471Z,100234.66
2018-11-25T10:17:42.888Z,100228.28
2018-11-25T10:20:31.403Z,100222.72
2018-11-25T10:23:18.944Z,100221.43
2018-11-25T10:26:08.957Z,100223.44
2018-11-25T10:32:16.067Z,100223.64
2018-11-25T10:35:03.271Z,100219.16
2018-11-25T10:37:50.578Z,100217.67
2018-11-25T10:40:47.111Z,100216.59
2018-11-25T10:43:35.163Z,100216.94
2018-11-25T10:46:22.534Z,100213.76
2018-11-25T10:49:10.107Z,100214.44
2018-11-25T10:51:57.876Z,100209.06
2018-11-25T10:54:45.089Z,100208.30
2018-11-25T10:57:40.565Z,100199.13
2018-11-25T11:03:08.676Z,100201.91
2018-11-25T11:05:57.781Z,100207.38
2018-11-25T11:08:46.356Z,100198.38
2018-11-25T11:11:33.354Z,100200.63
2018-11-25T11:14:23.029Z,100200.75
2018-11-25T11:17:10.349Z,100204.84
2018-11-25T11:19:58.117Z,100203.57
2018-11-25T11:22:45.631Z,100200.02
2018-11-25T11:25:33.303Z,100200.13
2018-11-25T11:28:21.682Z,100197.77
2018-11-25T11:31:13.274Z,100196.34
2018-11-25T11:33:58.882Z,100197.27
2018-11-25T11:36:46.495Z,100199.59
2018-11-25T11:42:44.251Z,100188.85
2018-11-25T11:45:32.480Z,100187.53
2018-11-25T11:48:20.888Z,100193.81
2018-11-25T11:51:08.894Z,100191.03
2018-11-25T11:54:00.759Z,100193.55
2018-11-25T11:56:48.627Z,100195.09
2018-11-25T11:59:36.202Z,100190.66
2018-11-25T12:02:23.470Z,100188.91
2018-11-25T12:05:11.190Z,100190.52
2018-11-25T12:07:58.768Z,100191.17
2018-11-25T12:10:48.312Z,100183.92
2018-11-25T12:13:35.797Z,100185.66
2018-11-25T12:16:23.426Z,100180.53
2018-11-25T12:19:11.128Z,100178.59
2018-11-25T12:21:58.974Z,100167.09
2018-11-25T12:24:55.864Z,100165.34
2018-11-25T12:27:43.115Z,100162.64
2018-11-25T12:30:31.079Z,100155.91
2018-11-25T12:33:29.019Z,100152.83
2018-11-25T12:36:16.852Z,100153.79
2018-11-25T12:39:04.493Z,100148.55
2018-11-25T12:41:53.193Z,100153.24
2018-11-25T12:44:40.258Z,100152.91
2018-11-25T12:47:27.955Z,100153.75
2018-11-25T12:53:21.313Z,100153.64
2018-11-25T12:56:08.981Z,100146.47
2018-11-25T12:58:56.745Z,100144.82
2018-11-25T13:01:43.859Z,100146.63
2018-11-25T13:04:31.289Z,100137.77
2018-11-25T13:07:18.977Z,100140.98
2018-11-25T13:10:06.385Z,100139.70
2018-11-25T13:12:53.306Z,100140.12
2018-11-25T13:15:40.809Z,100138.32
2018-11-25T13:18:28.435Z,100139.16
2018-11-25T13:24:26.392Z,100136.80
2018-11-25T13:27:14.267Z,100135.27
2018-11-25T13:30:03.081Z,100135.22
2018-11-25T13:35:57.921Z,100133.27
2018-11-25T13:38:48.986Z,100129.88
2018-11-25T13:41:36.616Z,100130.14
2018-11-25T13:44:25.409Z,100130.14
2018-11-25T13:47:12.815Z,100135.33
2018-11-25T13:53:06.755Z,100128.31
2018-11-25T13:55:55.559Z,100126.20
2018-11-25T13:58:43.049Z,100122.73
2018-11-25T14:01:30.516Z,100128.27
2018-11-25T14:04:17.996Z,100124.72
2018-11-25T14:07:05.702Z,100130.08
2018-11-25T14:09:52.870Z,100130.09
2018-11-25T14:12:40.209Z,100136.14
2018-11-25T14:15:27.628Z,100130.48
2018-11-25T14:18:14.898Z,100140.53
2018-11-25T14:21:02.571Z,100132.70
2018-11-25T14:27:05.108Z,100136.79
2018-11-25T14:29:53.269Z,100133.38
2018-11-25T14:32:40.514Z,100131.25
2018-11-25T14:35:28.091Z,100136.48
2018-11-25T14:38:16.617Z,100138.19
2018-11-25T14:41:04.615Z,100144.73
2018-11-25T14:43:51.804Z,100143.84
2018-11-25T14:46:39.829Z,100141.64
2018-11-25T14:49:34.171Z,100141.70
2018-11-25T14:52:22.410Z,100144.61
2018-11-25T14:55:10.183Z,100149.61
2018-11-25T14:57:57.307Z,100153.14
2018-11-25T15:00:44.422Z,100150.95
2018-11-25T15:03:39.831Z,100149.20
2018-11-25T15:06:29.520Z,100147.86
2018-11-25T15:09:14.512Z,100153.96
2018-11-25T15:12:03.018Z,100153.56
2018-11-25T15:14:50.591Z,100157.52
2018-11-25T15:17:38.375Z,100152.67
2018-11-25T15:20:25.489Z,100142.57
2018-11-25T15:23:13.017Z,100147.70
2018-11-25T15:29:06.660Z,100148.91
2018-11-25T15:31:57.661Z,100154.39
2018-11-25T15:34:44.717Z,100152.86
2018-11-25T15:37:34.708Z,100151.93
2018-11-25T15:40:22.871Z,100146.16
2018-11-25T15:43:10.042Z,100156.22
2018-11-25T15:45:57.728Z,100148.94
2018-11-25T15:48:45.249Z,100147.30
2018-11-25T15:51:32.810Z,100148.44
2018-11-25T15:54:20.098Z,100150.42
2018-11-25T15:57:07.420Z,100154.95
2018-11-25T15:59:54.578Z,100150.19
2018-11-25T16:02:42.002Z,100150.95
2018-11-25T16:05:36.976Z,100147.39
2018-11-25T16:08:25.052Z,100147.16
2018-11-25T16:11:12.065Z,100149.93
2018-11-25T16:13:59.586Z,100147.92
2018-11-25T16:16:46.784Z,100152.58
2018-11-25T16:19:34.175Z,100147.60
2018-11-25T16:22:22.061Z,100148.20
2018-11-25T16:25:09.194Z,100148.35
2018-11-25T16:27:56.985Z,100152.00
2018-11-25T16:30:44.510Z,100150.02
2018-11-25T16:33:32.037Z,100147.85
2018-11-25T16:36:19.255Z,100148.22
2018-11-25T16:39:06.647Z,100142.89
2018-11-25T16:41:57.926Z,100141.03
2018-11-25T16:44:42.353Z,100149.77
2018-11-25T16:47:29.709Z,100144.40
2018-11-25T16:50:25.062Z,100146.83
2018-11-25T16:53:06.585Z,100153.66
2018-11-25T16:55:53.968Z,100150.42
2018-11-25T17:01:47.579Z,100159.34
2018-11-25T17:04:34.859Z,100166.13
2018-11-25T17:07:23.354Z,100163.55
2018-11-25T17:10:11.692Z,100161.33
2018-11-25T17:12:58.767Z,100159.67
2018-11-25T17:15:46.189Z,100154.86
2018-11-25T17:18:33.716Z,100161.72
2018-11-25T17:21:21.399Z,100162.44
2018-11-25T17:24:09.084Z,100165.28
2018-11-25T17:26:56.432Z,100167.33
2018-11-25T17:32:52.323Z,100172.20
2018-11-25T17:35:42.207Z,100176.94
2018-11-25T17:38:29.204Z,100172.37
2018-11-25T17:41:16.519Z,100169.94
2018-11-25T17:44:04.207Z,100168.21
2018-11-25T17:46:51.527Z,100170.13
2018-11-25T17:49:42.101Z,100173.77
2018-11-25T17:52:29.242Z,100171.66
2018-11-25T17:55:16.440Z,100178.30
2018-11-25T17:58:03.867Z,100180.95
2018-11-25T18:00:51.491Z,100179.09
2018-11-25T18:03:38.593Z,100173.64
2018-11-25T18:06:25.965Z,100172.52
2018-11-25T18:09:13.250Z,100170.84
2018-11-25T18:12:01.040Z,100176.18
2018-11-25T18:14:48.355Z,100179.37
2018-11-25T18:17:35.919Z,100173.91
2018-11-25T18:20:24.106Z,100168.05
2018-11-25T18:26:24.165Z,100174.75
2018-11-25T18:29:11.481Z,100172.20
2018-11-25T18:32:00.850Z,100174.60
2018-11-25T18:34:48.927Z,100178.73
2018-11-25T18:37:40.434Z,100169.84
2018-11-25T18:40:45.230Z,100174.35
2018-11-25T18:43:32.095Z,100175.55
2018-11-25T18:46:20.086Z,100182.47
2018-11-25T18:49:07.806Z,100177.05
2018-11-25T18:51:56.086Z,100176.06
2018-11-25T18:54:56.803Z,100173.39
2018-11-25T18:57:45.354Z,100177.73
2018-11-25T19:00:33.293Z,100183.80
2018-11-25T19:03:21.813Z,100182.88
2018-11-25T19:06:10.572Z,100191.19
2018-11-25T19:08:59.196Z,100187.14
2018-11-25T19:11:50.449Z,100184.95
2018-11-25T19:14:38.068Z,100184.45
2018-11-25T19:17:25.627Z,100184.81
2018-11-25T19:20:12.643Z,100188.61
2018-11-25T19:23:00.836Z,100192.06
2018-11-25T19:25:47.949Z,100188.97
2018-11-25T19:28:36.807Z,100192.87
2018-11-25T19:31:23.859Z,100194.19
2018-11-25T19:34:10.942Z,100198.03
2018-11-25T19:36:58.463Z,100201.52
2018-11-25T19:42:52.966Z,100203.58
2018-11-25T19:45:45.732Z,100203.05
2018-11-25T19:48:33.641Z,100196.47
2018-11-25T19:51:21.221Z,100191.61
2018-11-25T19:54:11.716Z,100196.34
2018-11-25T19:56:59.652Z,100192.17
2018-11-25T19:59:47.681Z,100193.83
2018-11-25T20:02:35.872Z,100195.14
2018-11-25T20:05:23.602Z,100193.96
2018-11-25T20:08:11.559Z,100204.45
2018-11-25T20:11:00.913Z,100199.80
2018-11-25T20:13:50.522Z,100198.77
2018-11-25T20:16:38.454Z,100204.02
2018-11-25T20:19:26.392Z,100199.23
2018-11-25T20:22:24.719Z,100206.37
2018-11-25T20:25:10.456Z,100207.68
2018-11-25T20:27:58.715Z,100205.24
2018-11-25T20:30:46.859Z,100199.00
2018-11-25T20:33:40.501Z,100197.98
2018-11-25T20:36:29.384Z,100206.62
2018-11-25T20:39:20.153Z,100202.42
2018-11-25T20:42:08.085Z,100200.01
2018-11-25T20:44:55.731Z,100200.01
2018-11-25T20:48:01.459Z,100199.12
2018-11-25T20:50:50.381Z,100198.77
2018-11-25T20:53:53.606Z,100201.25
2018-11-25T20:56:47.540Z,100198.33
2018-11-25T20:59:35.711Z,100205.38
2018-11-25T21:02:29.362Z,100199.59
2018-11-25T21:05:12.652Z,100195.59
2018-11-25T21:08:00.364Z,100191.91
2018-11-25T21:10:49.593Z,100190.69
2018-11-25T21:13:37.761Z,100198.19
2018-11-25T21:16:25.536Z,100198.44
2018-11-25T21:19:13.347Z,100196.51
2018-11-25T21:22:00.478Z,100196.09
2018-11-25T21:24:57.015Z,100203.80
2018-11-25T21:27:45.354Z,100205.66
2018-11-25T21:30:33.505Z,100205.83
2018-11-25T21:33:22.472Z,100202.46
2018-11-25T21:36:09.908Z,100205.73
2018-11-25T21:39:00.912Z,100213.90
2018-11-25T21:41:49.536Z,100214.50
2018-11-25T21:44:37.900Z,100221.25
2018-11-25T21:47:25.166Z,100219.36
2018-11-25T21:50:15.696Z,100221.91
2018-11-25T21:53:10.903Z,100224.29
2018-11-25T21:55:59.553Z,100218.67
2018-11-25T21:58:47.536Z,100220.28
2018-11-25T22:01:37.554Z,100212.03
2018-11-25T22:04:25.762Z,100212.82
2018-11-25T22:07:17.703Z,100213.69
2018-11-25T22:10:05.588Z,100207.39
2018-11-25T22:12:53.939Z,100208.92
2018-11-25T22:15:41.876Z,100209.38
2018-11-25T22:18:30.086Z,100201.43
2018-11-25T22:21:17.871Z,100198.80
2018-11-25T22:24:06.385Z,100209.95
2018-11-25T22:26:55.714Z,100205.82
2018-11-25T22:29:45.941Z,100199.42
2018-11-25T22:32:34.981Z,100196.90
2018-11-25T22:35:22.849Z,100195.52
2018-11-25T22:38:12.928Z,100202.13
2018-11-25T22:41:00.377Z,100206.88
2018-11-25T22:43:48.936Z,100201.13
2018-11-25T22:46:36.701Z,100203.86
2018-11-25T22:49:24.655Z,100199.67
2018-11-25T22:52:12.807Z,100197.44
2018-11-25T22:55:01.274Z,100203.15
2018-11-25T22:57:53.363Z,100204.96
2018-11-25T23:00:40.981Z,100203.39
2018-11-25T23:03:34.344Z,100203.03
2018-11-25T23:06:49.349Z,100207.96
2018-11-25T23:09:36.693Z,100207.04
2018-11-25T23:12:24.483Z,100204.38
2018-11-25T23:15:15.062Z,100200.41
2018-11-25T23:18:03.037Z,100194.57
2018-11-25T23:20:50.992Z,100191.64
2018-11-25T23:23:41.324Z,100187.67
2018-11-25T23:26:29.778Z,100193.55
2018-11-25T23:29:19.054Z,100186.36
2018-11-25T23:32:06.843Z,100183.45
2018-11-25T23:34:54.529Z,100179.61
2018-11-25T23:37:42.139Z,100180.52
2018-11-25T23:40:31.447Z,100177.72
2018-11-25T23:43:19.136Z,100178.34
2018-11-25T23:46:07.184Z,100186.95
2018-11-25T23:48:54.680Z,100177.55
2018-11-25T23:51:41.537Z,100171.27
2018-11-25T23:54:28.759Z,100172.94
2018-11-25T23:57:15.734Z,100180.11
